Time;durP1;ratioP1;P1;durP2;ratioP2;P2;SDS_P1;SDS_P2;PMS_P1;PMS_P2;Temp;Humidity;BMP_temperature;BMP_pressure;BME280_temperature;BME280_humidity;BME280_pressure;Samples;Min_cycle;Max_cycle;Signal;HPM_P1;HPM_P2
2021/10/18 00:00:56;;;;;;;22.08;13.30;;;11.50;99.90;;;;;;5029955;28;20091;-75
2021/10/18 00:03:22;;;;;;;22.38;13.48;;;11.50;99.90;;;;;;5030377;28;20029;-75
2021/10/18 00:05:48;;;;;;;20.85;13.77;;;11.50;99.90;;;;;;5029287;28;20400;-75
2021/10/18 00:08:14;;;;;;;22.77;14.35;;;11.50;99.90;;;;;;5024684;28;20037;-75
2021/10/18 00:10:40;;;;;;;23.23;13.38;;;11.50;99.90;;;;;;5008544;28;20022;-75
2021/10/18 00:13:06;;;;;;;21.40;13.77;;;11.50;99.90;;;;;;5032045;28;20190;-76
2021/10/18 00:15:31;;;;;;;20.95;13.15;;;11.40;99.90;;;;;;5050063;28;20238;-74
2021/10/18 00:17:59;;;;;;;23.52;13.95;;;11.50;99.90;;;;;;5049573;28;20033;-74
2021/10/18 00:20:31;;;;;;;20.48;14.02;;;11.50;99.90;;;;;;5050100;28;20020;-74
2021/10/18 00:22:57;;;;;;;21.58;13.35;;;11.50;99.90;;;;;;5049171;28;20020;-74
2021/10/18 00:25:23;;;;;;;24.90;13.95;;;11.50;99.90;;;;;;5032301;28;20033;-75
2021/10/18 00:27:49;;;;;;;20.35;13.90;;;11.50;99.90;;;;;;5050475;28;20075;-74
2021/10/18 00:30:15;;;;;;;16.88;13.02;;;11.50;99.90;;;;;;5049801;28;20029;-74
2021/10/18 00:32:41;;;;;;;20.27;13.20;;;11.50;99.90;;;;;;5030596;28;20025;-74
2021/10/18 00:35:08;;;;;;;21.85;13.13;;;11.50;99.90;;;;;;5049484;28;20028;-73
2021/10/18 00:37:34;;;;;;;20.48;13.73;;;11.50;99.90;;;;;;5049101;28;20060;-76
2021/10/18 00:39:59;;;;;;;17.15;13.18;;;11.40;99.90;;;;;;5050381;28;20521;-75
2021/10/18 00:42:25;;;;;;;21.45;13.27;;;11.50;99.90;;;;;;5050279;28;20017;-76
2021/10/18 00:44:51;;;;;;;18.20;12.60;;;11.40;99.90;;;;;;5050082;28;20017;-75
2021/10/18 00:47:21;;;;;;;18.63;12.10;;;11.50;99.90;;;;;;5050753;28;20478;-74
2021/10/18 00:49:47;;;;;;;19.15;12.95;;;11.40;99.90;;;;;;5050061;28;20459;-75
2021/10/18 00:52:15;;;;;;;18.63;12.25;;;11.40;99.90;;;;;;5049542;28;20035;-75
2021/10/18 00:54:41;;;;;;;20.65;11.85;;;11.40;99.90;;;;;;5048466;28;20550;-74
2021/10/18 00:57:07;;;;;;;19.60;13.70;;;11.40;99.90;;;;;;5066236;28;20103;-74
2021/10/18 00:59:35;;;;;;;19.08;12.40;;;11.30;99.90;;;;;;5068438;28;20069;-76
2021/10/18 01:02:01;;;;;;;20.02;12.57;;;11.40;99.90;;;;;;5058623;28;20025;-76
2021/10/18 01:04:27;;;;;;;21.63;12.65;;;11.30;99.90;;;;;;5050511;28;20505;-76
2021/10/18 01:06:54;;;;;;;20.10;12.25;;;11.30;99.90;;;;;;5050217;28;20025;-75
2021/10/18 01:09:19;;;;;;;20.52;12.30;;;11.40;99.90;;;;;;5050054;28;20078;-74
2021/10/18 01:11:45;;;;;;;18.00;11.98;;;11.40;99.90;;;;;;5049200;28;20033;-75
2021/10/18 01:14:11;;;;;;;19.35;12.38;;;11.30;99.90;;;;;;5048798;28;20052;-75
2021/10/18 01:16:36;;;;;;;19.17;12.35;;;11.30;99.90;;;;;;5048231;28;20032;-74
2021/10/18 01:19:14;;;;;;;16.40;11.90;;;11.30;99.90;;;;;;5048729;28;20032;-75
2021/10/18 01:21:40;;;;;;;17.35;11.88;;;11.30;99.90;;;;;;5049177;28;20029;-75
2021/10/18 01:24:06;;;;;;;16.00;11.45;;;11.30;99.90;;;;;;5049110;28;20078;-76
2021/10/18 01:26:32;;;;;;;19.13;12.25;;;11.30;99.90;;;;;;5048546;28;20103;-75
2021/10/18 01:28:58;;;;;;;16.20;11.55;;;11.30;99.90;;;;;;5048991;28;20025;-75
2021/10/18 01:31:24;;;;;;;18.85;12.18;;;11.30;99.90;;;;;;5045984;28;20040;-75
2021/10/18 01:33:49;;;;;;;18.30;12.70;;;11.30;99.90;;;;;;5047932;28;20491;-75
2021/10/18 01:36:15;;;;;;;19.25;11.70;;;11.30;99.90;;;;;;5048548;28;20107;-75
2021/10/18 01:38:41;;;;;;;17.15;11.93;;;11.30;99.90;;;;;;5048423;28;20433;-74
2021/10/18 01:41:07;;;;;;;17.20;11.45;;;11.30;99.90;;;;;;5049222;28;20091;-74
2021/10/18 01:43:33;;;;;;;17.65;11.60;;;11.30;99.90;;;;;;5049134;28;20049;-74
2021/10/18 01:45:58;;;;;;;13.98;10.45;;;11.30;99.90;;;;;;5046078;28;20487;-74
2021/10/18 01:48:24;;;;;;;17.38;12.02;;;11.30;99.90;;;;;;5048864;28;20479;-74
2021/10/18 01:50:53;;;;;;;17.27;11.80;;;11.30;99.90;;;;;;5034167;28;20025;-75
2021/10/18 01:53:18;;;;;;;16.98;11.07;;;11.30;99.90;;;;;;5034518;28;20025;-75
2021/10/18 01:55:44;;;;;;;16.38;10.93;;;11.30;99.90;;;;;;5052472;28;20036;-75
2021/10/18 01:58:12;;;;;;;14.65;10.65;;;11.30;99.90;;;;;;5034781;28;20061;-75
2021/10/18 02:00:40;;;;;;;20.58;11.90;;;11.30;99.90;;;;;;5052241;28;20029;-75
2021/10/18 02:03:06;;;;;;;14.68;10.85;;;11.30;99.90;;;;;;5052807;28;20055;-76
2021/10/18 02:05:32;;;;;;;18.10;11.45;;;11.30;99.90;;;;;;5052468;28;20052;-75
2021/10/18 02:07:57;;;;;;;17.45;11.52;;;11.30;99.90;;;;;;5051297;28;20560;-85
2021/10/18 02:10:23;;;;;;;16.02;11.18;;;11.30;99.90;;;;;;5051229;28;20028;-85
2021/10/18 02:12:51;;;;;;;14.00;10.63;;;11.20;99.90;;;;;;5050958;28;20414;-86
2021/10/18 02:15:17;;;;;;;17.38;10.68;;;11.30;99.90;;;;;;5032744;28;20029;-85
2021/10/18 02:17:43;;;;;;;15.48;10.77;;;11.20;99.90;;;;;;5051329;28;20115;-85
2021/10/18 02:20:11;;;;;;;14.77;10.77;;;11.20;99.90;;;;;;5051092;28;20025;-86
2021/10/18 02:22:37;;;;;;;14.57;10.77;;;11.30;99.90;;;;;;5051247;28;20108;-85
2021/10/18 02:25:05;;;;;;;14.73;10.60;;;11.20;99.90;;;;;;5051312;28;20391;-86
2021/10/18 02:27:30;;;;;;;13.73;10.50;;;11.20;99.90;;;;;;5032219;28;20571;-86
2021/10/18 02:29:57;;;;;;;19.77;11.20;;;11.20;99.90;;;;;;5051033;28;20147;-85
2021/10/18 02:32:23;;;;;;;15.50;10.63;;;11.20;99.90;;;;;;5033362;28;20025;-86
2021/10/18 02:34:49;;;;;;;15.05;11.00;;;11.20;99.90;;;;;;5051096;28;20028;-86
2021/10/18 02:37:15;;;;;;;18.25;11.73;;;11.10;99.90;;;;;;5051159;28;20029;-86
2021/10/18 02:39:41;;;;;;;16.70;11.02;;;11.20;99.90;;;;;;5051247;28;20537;-86
2021/10/18 02:42:07;;;;;;;15.82;10.30;;;11.30;99.90;;;;;;5049818;28;20025;-86
2021/10/18 02:44:32;;;;;;;13.75;10.23;;;11.30;99.90;;;;;;5051293;28;20024;-86
2021/10/18 02:46:58;;;;;;;15.30;10.55;;;11.20;99.90;;;;;;5049967;28;20024;-86
2021/10/18 02:49:24;;;;;;;16.55;10.57;;;11.20;99.90;;;;;;5049478;28;20056;-84
2021/10/18 02:51:50;;;;;;;16.38;10.75;;;11.20;99.90;;;;;;5051231;28;20108;-85
2021/10/18 02:54:16;;;;;;;14.93;10.63;;;11.20;99.90;;;;;;5051035;28;20025;-86
2021/10/18 02:56:43;;;;;;;14.55;10.70;;;11.20;99.90;;;;;;5055028;28;20027;-86
2021/10/18 02:59:08;;;;;;;14.05;10.73;;;11.20;99.90;;;;;;5054759;28;20029;-85
2021/10/18 03:01:34;;;;;;;14.90;10.57;;;11.30;99.90;;;;;;5054545;28;20364;-85
2021/10/18 03:04:00;;;;;;;15.65;10.45;;;11.30;99.90;;;;;;5054599;28;20021;-86
2021/10/18 03:06:26;;;;;;;16.02;11.45;;;11.20;99.90;;;;;;5054604;28;20013;-86
2021/10/18 03:08:53;;;;;;;20.17;10.38;;;11.10;99.90;;;;;;5054613;28;20083;-85
2021/10/18 03:11:19;;;;;;;16.52;11.07;;;11.20;99.90;;;;;;5054351;28;20028;-85
2021/10/18 03:13:45;;;;;;;14.20;11.07;;;11.20;99.90;;;;;;5054477;28;20048;-85
2021/10/18 03:16:10;;;;;;;15.55;11.05;;;11.10;99.90;;;;;;5054675;28;20082;-86
2021/10/18 03:18:37;;;;;;;16.10;10.57;;;11.10;99.90;;;;;;5054360;28;20473;-86
2021/10/18 03:21:03;;;;;;;14.18;10.07;;;11.10;99.90;;;;;;5054461;28;20547;-86
2021/10/18 03:23:29;;;;;;;14.38;10.23;;;11.10;99.90;;;;;;5054506;28;20017;-86
2021/10/18 03:25:55;;;;;;;14.30;10.57;;;11.10;99.90;;;;;;5054265;28;20286;-86
2021/10/18 03:28:20;;;;;;;15.48;10.73;;;11.10;99.90;;;;;;5054388;28;20517;-86
2021/10/18 03:30:46;;;;;;;16.02;10.20;;;11.10;99.90;;;;;;5052978;28;20120;-86
2021/10/18 03:33:12;;;;;;;16.00;11.70;;;11.20;99.90;;;;;;5053946;28;20036;-84
2021/10/18 03:35:38;;;;;;;16.42;10.32;;;11.20;99.90;;;;;;5054396;28;20501;-86
2021/10/18 03:38:04;;;;;;;17.80;11.45;;;11.20;99.90;;;;;;5053971;28;20025;-86
2021/10/18 03:40:30;;;;;;;15.93;11.00;;;11.10;99.90;;;;;;5053838;28;20035;-87
2021/10/18 03:42:56;;;;;;;15.05;10.52;;;11.10;99.90;;;;;;5054076;28;20052;-85
2021/10/18 03:45:22;;;;;;;15.13;10.80;;;11.10;99.90;;;;;;5053849;28;20025;-86
2021/10/18 03:47:48;;;;;;;14.15;10.50;;;11.10;99.90;;;;;;5052603;28;20111;-87
2021/10/18 03:50:15;;;;;;;17.27;10.52;;;11.10;99.90;;;;;;5038814;28;20496;-85
2021/10/18 03:52:41;;;;;;;16.45;10.45;;;11.10;99.90;;;;;;5016236;28;20065;-86
2021/10/18 03:55:07;;;;;;;17.08;10.63;;;11.10;99.90;;;;;;5016186;28;20154;-86
2021/10/18 03:57:33;;;;;;;17.27;11.77;;;11.10;99.90;;;;;;5034205;28;20030;-85
2021/10/18 03:59:59;;;;;;;14.77;10.23;;;11.10;99.90;;;;;;5033869;28;20387;-86
2021/10/18 04:02:24;;;;;;;14.82;10.15;;;11.20;99.90;;;;;;5033534;28;20033;-86
2021/10/18 04:04:50;;;;;;;13.40;9.80;;;11.20;99.90;;;;;;5033921;28;20025;-85
2021/10/18 04:07:16;;;;;;;15.30;10.85;;;11.20;99.90;;;;;;5033355;28;20383;-86
2021/10/18 04:09:45;;;;;;;15.35;10.75;;;11.20;99.90;;;;;;5051335;28;20098;-86
2021/10/18 04:12:11;;;;;;;17.63;11.80;;;11.20;99.90;;;;;;5053369;28;20037;-86
2021/10/18 04:14:36;;;;;;;14.25;10.00;;;11.20;99.90;;;;;;5053603;28;20418;-86
2021/10/18 04:17:02;;;;;;;16.13;10.68;;;11.20;99.90;;;;;;5053240;28;20107;-86
2021/10/18 04:19:28;;;;;;;13.07;9.80;;;11.20;99.90;;;;;;5053475;28;20509;-85
2021/10/18 04:21:54;;;;;;;16.17;10.40;;;11.20;99.90;;;;;;5053337;28;20032;-86
2021/10/18 04:24:20;;;;;;;12.73;9.30;;;11.30;99.90;;;;;;5053226;28;20176;-86
2021/10/18 04:26:45;;;;;;;13.77;10.05;;;11.20;99.90;;;;;;5053144;28;20025;-86
2021/10/18 04:29:11;;;;;;;14.27;10.25;;;11.20;99.90;;;;;;5052943;28;20064;-86
2021/10/18 04:31:37;;;;;;;14.05;10.18;;;11.20;99.90;;;;;;5053004;28;20029;-86
2021/10/18 04:34:03;;;;;;;13.25;9.80;;;11.10;99.90;;;;;;5053127;28;20108;-85
2021/10/18 04:36:29;;;;;;;14.95;10.43;;;11.10;99.90;;;;;;5053017;28;20368;-86
2021/10/18 04:38:55;;;;;;;14.68;10.00;;;11.10;99.90;;;;;;5052999;28;20497;-85
2021/10/18 04:41:21;;;;;;;13.60;10.63;;;11.10;99.90;;;;;;5051473;28;20060;-86
2021/10/18 04:43:46;;;;;;;15.77;10.82;;;11.10;99.90;;;;;;5052988;28;20135;-86
2021/10/18 04:46:12;;;;;;;14.35;10.43;;;11.00;99.90;;;;;;5052670;28;20025;-85
2021/10/18 04:48:38;;;;;;;14.18;10.32;;;11.10;99.90;;;;;;5052714;28;20100;-86
2021/10/18 04:51:04;;;;;;;14.65;10.32;;;11.10;99.90;;;;;;5055299;28;20029;-86
2021/10/18 04:53:30;;;;;;;15.07;10.50;;;11.10;99.90;;;;;;5052732;28;20094;-85
2021/10/18 04:55:56;;;;;;;18.85;10.05;;;11.10;99.90;;;;;;5052685;28;20514;-86
2021/10/18 04:58:22;;;;;;;15.15;10.55;;;11.10;99.90;;;;;;5055201;28;20029;-86
2021/10/18 05:00:53;;;;;;;13.55;9.48;;;11.10;99.90;;;;;;5054150;28;20033;-85
2021/10/18 05:03:19;;;;;;;17.23;10.23;;;11.10;99.90;;;;;;5059132;28;20048;-86
2021/10/18 05:05:45;;;;;;;17.42;9.98;;;11.10;99.90;;;;;;5054472;28;20478;-86
2021/10/18 05:08:12;;;;;;;15.10;9.52;;;11.10;99.90;;;;;;5066137;28;20028;-86
2021/10/18 05:10:41;;;;;;;16.67;10.07;;;11.10;99.90;;;;;;5051117;28;20509;-85
2021/10/18 05:13:07;;;;;;;14.25;9.45;;;11.10;99.90;;;;;;5039617;28;20045;-86
2021/10/18 05:15:33;;;;;;;14.10;10.07;;;11.10;99.90;;;;;;5052097;28;20479;-86
2021/10/18 05:18:00;;;;;;;14.02;9.65;;;11.10;99.90;;;;;;5050727;28;20036;-87
2021/10/18 05:20:27;;;;;;;14.52;10.05;;;11.10;99.90;;;;;;5032804;28;20036;-86
2021/10/18 05:22:53;;;;;;;13.90;9.40;;;11.10;99.90;;;;;;5051471;28;20029;-87
2021/10/18 05:25:19;;;;;;;13.45;9.15;;;11.10;99.90;;;;;;5033752;28;20497;-86
2021/10/18 05:27:45;;;;;;;17.38;10.38;;;11.00;99.90;;;;;;5051308;28;20017;-86
2021/10/18 05:30:12;;;;;;;15.65;9.88;;;11.00;99.90;;;;;;5050067;28;20281;-86
2021/10/18 05:32:38;;;;;;;14.70;9.32;;;11.00;99.90;;;;;;5050060;28;20021;-86
2021/10/18 05:35:05;;;;;;;13.43;9.73;;;11.00;99.90;;;;;;5049973;28;20036;-85
2021/10/18 05:37:30;;;;;;;14.07;9.15;;;11.10;99.90;;;;;;5049940;28;20375;-87
2021/10/18 05:39:56;;;;;;;14.60;8.98;;;11.00;99.90;;;;;;5049926;28;20035;-86
2021/10/18 05:42:22;;;;;;;14.55;9.60;;;11.10;99.90;;;;;;5032609;28;20021;-85
2021/10/18 05:44:48;;;;;;;15.30;9.52;;;11.00;99.90;;;;;;5033023;28;20025;-86
2021/10/18 05:47:14;;;;;;;13.00;10.07;;;11.00;99.90;;;;;;5051801;28;20032;-86
2021/10/18 05:49:40;;;;;;;14.70;9.65;;;11.00;99.90;;;;;;5051613;28;20029;-86
2021/10/18 05:52:06;;;;;;;14.73;9.85;;;11.00;99.90;;;;;;5051528;28;20041;-86
2021/10/18 05:54:32;;;;;;;12.35;9.45;;;11.00;99.90;;;;;;5051843;28;20033;-86
2021/10/18 05:56:57;;;;;;;16.20;9.45;;;10.90;99.90;;;;;;5033707;28;20061;-86
2021/10/18 05:59:23;;;;;;;14.70;9.60;;;10.90;99.90;;;;;;5050779;28;20092;-85
2021/10/18 06:01:48;;;;;;;19.13;9.38;;;10.90;99.90;;;;;;5050587;28;20021;-85
2021/10/18 06:04:14;;;;;;;12.52;8.77;;;10.90;99.90;;;;;;5051393;28;20105;-85
2021/10/18 06:06:40;;;;;;;13.40;8.98;;;10.90;99.90;;;;;;5052649;28;20025;-86
2021/10/18 06:09:06;;;;;;;10.93;8.65;;;10.90;99.90;;;;;;5052633;28;20060;-86
2021/10/18 06:11:33;;;;;;;13.30;9.07;;;10.90;99.90;;;;;;5035136;28;20119;-87
2021/10/18 06:13:59;;;;;;;15.48;8.80;;;10.90;99.90;;;;;;5034639;28;20060;-86
2021/10/18 06:16:25;;;;;;;15.88;9.57;;;10.90;99.90;;;;;;5034491;28;20029;-86
2021/10/18 06:18:51;;;;;;;13.20;9.43;;;10.90;99.90;;;;;;5051149;28;20035;-86
2021/10/18 06:21:17;;;;;;;11.93;9.23;;;10.90;99.90;;;;;;5051217;28;20033;-87
2021/10/18 06:23:46;;;;;;;14.75;8.90;;;10.90;99.90;;;;;;5032653;28;20060;-87
2021/10/18 06:26:12;;;;;;;13.40;8.77;;;10.90;99.90;;;;;;5051781;28;20433;-86
2021/10/18 06:28:39;;;;;;;12.20;9.05;;;10.90;99.90;;;;;;5051539;28;20032;-87
2021/10/18 06:31:05;;;;;;;13.90;9.15;;;11.00;99.90;;;;;;5034069;28;20040;-86
2021/10/18 06:33:31;;;;;;;13.20;8.90;;;11.00;99.90;;;;;;5055355;28;20071;-85
2021/10/18 06:35:57;;;;;;;12.38;8.90;;;11.00;99.90;;;;;;5055039;28;20017;-86
2021/10/18 06:38:23;;;;;;;13.07;8.60;;;11.00;99.90;;;;;;5053654;28;20056;-85
2021/10/18 06:40:50;;;;;;;13.75;9.30;;;11.10;99.90;;;;;;5054706;28;20025;-86
2021/10/18 06:43:19;;;;;;;14.65;9.65;;;11.20;99.90;;;;;;5055031;28;20025;-86
2021/10/18 06:45:46;;;;;;;15.88;9.65;;;11.20;99.90;;;;;;5035306;28;20032;-86
2021/10/18 06:48:14;;;;;;;15.18;9.55;;;11.30;99.90;;;;;;5053616;28;20025;-75
2021/10/18 06:50:41;;;;;;;14.25;8.68;;;11.30;99.90;;;;;;5053510;28;20100;-75
2021/10/18 06:53:13;;;;;;;14.07;9.32;;;11.30;99.90;;;;;;5035652;28;20064;-75
2021/10/18 06:55:39;;;;;;;16.80;9.82;;;11.40;99.90;;;;;;5039085;28;20409;-76
2021/10/18 06:58:06;;;;;;;17.13;10.40;;;11.40;99.90;;;;;;5054656;28;20117;-76
2021/10/18 07:00:31;;;;;;;14.02;10.40;;;11.40;99.90;;;;;;5036562;28;20490;-75
2021/10/18 07:02:57;;;;;;;15.23;10.68;;;11.40;99.90;;;;;;5054064;28;20078;-83
2021/10/18 07:05:23;;;;;;;19.15;11.65;;;11.40;99.90;;;;;;5055622;28;20028;-86
2021/10/18 07:07:49;;;;;;;22.75;13.27;;;11.50;99.90;;;;;;5054221;28;20052;-85
2021/10/18 07:10:14;;;;;;;19.52;12.60;;;11.50;99.90;;;;;;5053568;28;20025;-85
2021/10/18 07:12:40;;;;;;;19.88;12.43;;;11.60;99.90;;;;;;5053421;28;20052;-75
2021/10/18 07:15:06;;;;;;;21.17;14.20;;;11.70;99.90;;;;;;5055401;28;20017;-75
2021/10/18 07:17:32;;;;;;;25.63;13.82;;;11.70;99.90;;;;;;5055640;28;20109;-75
2021/10/18 07:19:59;;;;;;;23.85;13.60;;;11.80;99.90;;;;;;5053810;28;20049;-86
2021/10/18 07:22:28;;;;;;;27.67;15.38;;;11.80;99.90;;;;;;5050816;28;20025;-84
2021/10/18 07:24:54;;;;;;;28.83;16.33;;;11.90;99.90;;;;;;5049985;28;20530;-85
2021/10/18 07:27:23;;;;;;;29.48;15.65;;;11.90;99.90;;;;;;5050653;28;20036;-84
2021/10/18 07:29:49;;;;;;;32.15;16.20;;;12.00;99.90;;;;;;5048157;28;20017;-84
2021/10/18 07:32:15;;;;;;;28.52;16.75;;;12.10;99.90;;;;;;5049365;28;20116;-84
2021/10/18 07:34:41;;;;;;;27.13;15.95;;;12.10;99.90;;;;;;5049985;28;20157;-84
2021/10/18 07:37:08;;;;;;;25.35;15.38;;;12.10;99.90;;;;;;5049969;28;20095;-84
2021/10/18 07:39:34;;;;;;;26.75;16.35;;;12.20;99.90;;;;;;5050497;28;20139;-84
2021/10/18 07:42:00;;;;;;;29.58;15.95;;;12.30;99.90;;;;;;5047647;28;20031;-84
2021/10/18 07:44:26;;;;;;;23.20;15.57;;;12.30;99.90;;;;;;5031083;28;20025;-84
2021/10/18 07:46:55;;;;;;;26.70;15.85;;;12.30;99.90;;;;;;5051410;28;20024;-84
2021/10/18 07:49:24;;;;;;;30.13;16.10;;;12.30;99.90;;;;;;5050377;28;20027;-84
2021/10/18 07:51:51;;;;;;;22.77;13.52;;;12.40;99.90;;;;;;5049386;28;20501;-84
2021/10/18 07:54:17;;;;;;;28.38;16.80;;;12.40;99.90;;;;;;5049988;28;20025;-85
2021/10/18 07:56:43;;;;;;;23.63;14.77;;;12.40;99.90;;;;;;5049425;28;20052;-84
2021/10/18 07:59:09;;;;;;;22.00;14.35;;;12.50;99.90;;;;;;5048923;28;20028;-84
2021/10/18 08:01:34;;;;;;;25.35;15.55;;;12.50;99.90;;;;;;5049861;28;20025;-84
2021/10/18 08:04:00;;;;;;;23.65;14.23;;;12.60;99.90;;;;;;5048769;28;20479;-84
2021/10/18 08:06:26;;;;;;;26.20;15.00;;;12.50;99.90;;;;;;5049484;28;20017;-84
2021/10/18 08:08:53;;;;;;;25.00;14.07;;;12.60;99.90;;;;;;5049074;28;20036;-84
2021/10/18 08:11:19;;;;;;;25.10;14.88;;;12.60;99.90;;;;;;5030875;28;20521;-84
2021/10/18 08:13:45;;;;;;;25.95;14.57;;;12.60;99.90;;;;;;5049329;28;20040;-84
2021/10/18 08:16:12;;;;;;;25.90;14.88;;;12.60;99.90;;;;;;5048911;28;20515;-84
2021/10/18 08:18:38;;;;;;;25.20;14.95;;;12.60;99.90;;;;;;5048350;28;20129;-84
2021/10/18 08:21:08;;;;;;;26.40;14.75;;;12.60;99.90;;;;;;5049463;28;20021;-84
2021/10/18 08:23:34;;;;;;;25.33;14.77;;;12.60;99.90;;;;;;5030925;28;20050;-84
2021/10/18 08:26:01;;;;;;;25.58;15.25;;;12.60;99.90;;;;;;5030157;28;20100;-84
2021/10/18 08:28:27;;;;;;;27.98;15.20;;;12.60;99.90;;;;;;5049247;28;20116;-82
2021/10/18 08:30:53;;;;;;;33.55;15.90;;;12.60;99.90;;;;;;5029605;28;20031;-84
2021/10/18 08:33:18;;;;;;;29.05;14.98;;;12.60;99.90;;;;;;5048080;28;20025;-84
2021/10/18 08:35:44;;;;;;;26.20;15.10;;;12.60;99.90;;;;;;5048772;28;20021;-84
2021/10/18 08:38:19;;;;;;;25.73;14.73;;;12.70;99.90;;;;;;5047834;28;20082;-84
2021/10/18 08:45:47;;;;;;;29.98;16.30;;;12.70;99.90;;;;;;5048565;28;20021;-84
2021/10/18 08:48:12;;;;;;;28.50;16.35;;;12.70;99.90;;;;;;5047977;28;20541;-85
2021/10/18 08:50:41;;;;;;;22.45;15.05;;;12.80;99.90;;;;;;5047802;28;20048;-83
2021/10/18 08:53:07;;;;;;;23.80;15.02;;;12.80;99.90;;;;;;5048143;28;20064;-83
2021/10/18 08:55:40;;;;;;;24.35;15.38;;;12.80;99.90;;;;;;5047029;28;20360;-84
2021/10/18 08:58:07;;;;;;;25.23;15.02;;;12.90;99.90;;;;;;5044589;28;20033;-84
2021/10/18 09:00:47;;;;;;;27.42;14.90;;;12.90;99.90;;;;;;5047764;28;20037;-84
2021/10/18 09:03:32;;;;;;;27.83;16.60;;;12.90;99.90;;;;;;5049759;28;20017;-84
2021/10/18 09:06:18;;;;;;;29.10;15.70;;;13.10;99.90;;;;;;5042381;28;20497;-84
2021/10/18 09:08:51;;;;;;;27.23;15.43;;;13.10;99.90;;;;;;5046416;28;20021;-84
2021/10/18 09:11:29;;;;;;;25.30;15.77;;;13.20;99.90;;;;;;5035647;28;20394;-84
2021/10/18 09:13:58;;;;;;;24.88;15.18;;;13.30;99.90;;;;;;5048247;28;20153;-84
2021/10/18 09:16:34;;;;;;;25.00;14.73;;;13.30;99.90;;;;;;5049216;28;20163;-84
2021/10/18 09:19:18;;;;;;;27.40;15.23;;;13.30;99.90;;;;;;5051800;28;20103;-83
2021/10/18 09:21:47;;;;;;;24.80;15.35;;;13.40;99.90;;;;;;5047496;28;20025;-84
2021/10/18 09:24:36;;;;;;;23.92;15.60;;;13.40;99.90;;;;;;5047919;28;20027;-84
2021/10/18 09:27:07;;;;;;;23.98;15.60;;;13.50;99.90;;;;;;5045112;28;20017;-83
2021/10/18 09:29:49;;;;;;;27.48;17.00;;;13.50;99.90;;;;;;5037103;28;20036;-84
2021/10/18 09:32:26;;;;;;;28.17;14.93;;;13.60;99.90;;;;;;5045403;28;20017;-85
2021/10/18 09:35:18;;;;;;;26.38;14.90;;;13.60;99.90;;;;;;5026957;28;20438;-90
2021/10/18 09:37:45;;;;;;;30.25;17.17;;;13.70;99.90;;;;;;5033238;28;20048;-86
2021/10/18 09:40:33;;;;;;;28.17;15.05;;;13.70;99.90;;;;;;5047175;28;20028;-83
2021/10/18 09:43:17;;;;;;;23.35;14.75;;;13.80;99.90;;;;;;5040872;28;20349;-81
2021/10/18 10:54:06;;;;;;;24.42;14.70;;;14.80;99.90;;;;;;5025384;28;20031;-83
2021/10/18 10:56:58;;;;;;;22.05;13.82;;;15.00;99.90;;;;;;5025267;28;20438;-83
2021/10/18 10:59:28;;;;;;;22.65;14.43;;;15.00;99.90;;;;;;5026762;28;20127;-83
2021/10/18 11:01:56;;;;;;;22.48;13.27;;;15.00;99.90;;;;;;5026564;28;20022;-81
2021/10/18 11:04:34;;;;;;;24.13;13.98;;;15.10;99.90;;;;;;5027142;28;20029;-81
2021/10/18 11:07:02;;;;;;;23.88;14.38;;;15.10;99.90;;;;;;5025526;28;20025;-82
2021/10/18 11:09:48;;;;;;;27.48;14.88;;;15.20;99.90;;;;;;5029442;28;20076;-81
2021/10/18 11:12:27;;;;;;;25.83;14.52;;;15.40;99.90;;;;;;5030437;28;20033;-84
2021/10/18 11:14:56;;;;;;;21.88;14.07;;;15.40;99.90;;;;;;5028767;28;20036;-81
2021/10/18 11:17:27;;;;;;;22.90;14.32;;;15.40;99.90;;;;;;5047573;28;20608;-81
2021/10/18 11:19:59;;;;;;;24.20;13.90;;;15.40;99.90;;;;;;5049713;28;20025;-81
2021/10/18 11:22:28;;;;;;;23.38;14.45;;;15.40;99.90;;;;;;5049618;28;20025;-80
2021/10/18 11:24:53;;;;;;;34.13;14.40;;;15.50;99.90;;;;;;5050321;28;20025;-84
2021/10/18 11:27:27;;;;;;;23.83;13.65;;;15.50;99.90;;;;;;5050136;28;20029;-84
2021/10/18 11:30:03;;;;;;;28.63;14.30;;;15.60;99.90;;;;;;5049774;28;20517;-84
2021/10/18 11:32:31;;;;;;;22.60;15.02;;;15.70;99.90;;;;;;5050298;28;20052;-88
2021/10/18 11:35:12;;;;;;;24.70;14.00;;;15.80;99.90;;;;;;5032527;28;20032;-88
2021/10/18 11:37:52;;;;;;;23.55;13.27;;;15.80;99.90;;;;;;5049724;28;20029;-88
2021/10/18 11:40:21;;;;;;;21.73;12.02;;;15.70;99.90;;;;;;5050047;28;20603;-83
2021/10/18 11:42:56;;;;;;;20.67;13.00;;;15.80;99.90;;;;;;5032618;28;20086;-82
2021/10/18 11:45:24;;;;;;;25.77;12.55;;;15.80;99.90;;;;;;5050676;28;20033;-82
2021/10/18 11:47:50;;;;;;;20.60;11.50;;;15.90;99.90;;;;;;5048325;28;20025;-82
2021/10/18 11:50:16;;;;;;;18.90;12.13;;;15.90;99.90;;;;;;5029749;28;20029;-82
2021/10/18 11:52:42;;;;;;;28.33;12.90;;;15.90;99.90;;;;;;5030145;28;20387;-82
2021/10/18 11:55:10;;;;;;;25.10;12.73;;;15.90;99.90;;;;;;5011570;28;20387;-80
2021/10/18 11:57:41;;;;;;;25.38;12.52;;;15.90;99.90;;;;;;5042465;28;21018;-84
2021/10/18 12:00:30;;;;;;;20.15;11.52;;;15.90;99.90;;;;;;5049744;28;20024;-86
2021/10/18 12:03:04;;;;;;;18.80;10.93;;;16.00;99.90;;;;;;5048027;28;20060;-82
2021/10/18 12:05:43;;;;;;;20.88;12.90;;;16.00;99.90;;;;;;5048358;28;20017;-82
2021/10/18 12:08:10;;;;;;;21.10;12.40;;;16.00;99.90;;;;;;5046517;28;20029;-82
2021/10/18 12:10:37;;;;;;;20.02;12.73;;;16.10;99.90;;;;;;5049049;28;20025;-82
2021/10/18 12:13:18;;;;;;;20.65;12.68;;;16.10;99.90;;;;;;5047871;28;20041;-82
2021/10/18 12:16:08;;;;;;;23.00;12.90;;;16.10;99.90;;;;;;5046143;28;20345;-81
2021/10/18 12:18:47;;;;;;;20.65;12.82;;;16.00;99.90;;;;;;5029790;28;20383;-84
2021/10/18 12:21:22;;;;;;;22.90;14.70;;;16.00;99.90;;;;;;5047644;28;20028;-83
2021/10/18 12:23:59;;;;;;;24.08;13.55;;;16.00;99.90;;;;;;5047032;28;20593;-83
2021/10/18 12:26:29;;;;;;;29.00;14.48;;;16.00;99.90;;;;;;5046800;28;20017;-84
2021/10/18 12:29:06;;;;;;;23.98;14.43;;;16.20;99.90;;;;;;5047483;28;20024;-84
2021/10/18 12:31:35;;;;;;;25.10;13.93;;;16.20;99.90;;;;;;5047100;28;20338;-83
2021/10/18 12:34:25;;;;;;;27.70;13.55;;;16.30;99.90;;;;;;5029916;28;20543;-83
2021/10/18 12:37:06;;;;;;;24.05;13.98;;;16.30;99.90;;;;;;5044719;28;20017;-84
2021/10/18 12:39:37;;;;;;;24.45;14.13;;;16.20;99.90;;;;;;5046740;28;20025;-84
2021/10/18 12:42:05;;;;;;;25.48;13.73;;;16.30;99.90;;;;;;5030467;28;20037;-84
2021/10/18 12:44:40;;;;;;;28.75;15.65;;;16.20;99.90;;;;;;5048162;28;20092;-83
2021/10/18 12:47:11;;;;;;;26.92;13.40;;;16.20;99.90;;;;;;5047795;28;20052;-83
2021/10/18 12:49:38;;;;;;;27.73;14.35;;;16.30;99.90;;;;;;5030315;28;20029;-83
2021/10/18 12:52:08;;;;;;;21.13;13.43;;;16.40;99.90;;;;;;5048137;28;20458;-83
2021/10/18 12:54:46;;;;;;;22.13;13.18;;;16.40;99.90;;;;;;5047776;28;20025;-83
2021/10/18 12:57:13;;;;;;;20.00;13.15;;;16.40;99.90;;;;;;5047832;28;20501;-84
2021/10/18 12:59:59;;;;;;;23.80;13.68;;;16.30;99.90;;;;;;5047842;28;20052;-84
2021/10/18 13:02:28;;;;;;;25.73;13.55;;;16.20;99.90;;;;;;5047238;28;20024;-83
2021/10/18 13:04:58;;;;;;;26.38;13.73;;;16.20;99.90;;;;;;5047782;28;20021;-84
2021/10/18 13:07:24;;;;;;;32.38;14.90;;;16.30;99.90;;;;;;5045754;28;20540;-83
2021/10/18 13:09:50;;;;;;;22.75;13.73;;;16.30;99.90;;;;;;5047048;28;20025;-84
2021/10/18 13:12:15;;;;;;;30.52;14.85;;;16.50;99.90;;;;;;5047745;28;20479;-84
2021/10/18 13:14:41;;;;;;;29.45;14.48;;;16.50;99.90;;;;;;5050665;28;20029;-84
2021/10/18 13:17:07;;;;;;;22.60;13.90;;;16.50;99.90;;;;;;5047620;28;20029;-83
2021/10/18 13:19:45;;;;;;;26.17;14.68;;;16.40;99.90;;;;;;5048413;28;20021;-81
2021/10/18 13:22:52;;;;;;;24.35;14.77;;;16.40;99.90;;;;;;5048784;28;20483;-81
2021/10/18 13:25:16;;;;;;;25.60;14.75;;;16.40;99.90;;;;;;5048101;28;20017;-81
2021/10/18 13:27:42;;;;;;;26.02;15.07;;;16.40;99.90;;;;;;5029380;28;20195;-80
2021/10/18 13:30:10;;;;;;;27.17;15.48;;;16.50;99.90;;;;;;5047892;28;20107;-81
2021/10/18 13:32:36;;;;;;;28.35;14.77;;;16.40;99.90;;;;;;5029777;28;20024;-83
2021/10/18 13:35:07;;;;;;;27.63;15.13;;;16.40;99.90;;;;;;5047889;28;20057;-81
2021/10/18 13:37:33;;;;;;;30.30;14.73;;;16.40;99.90;;;;;;5029229;28;21199;-83
2021/10/18 13:39:59;;;;;;;26.17;15.10;;;16.50;99.90;;;;;;5045428;28;20032;-82
2021/10/18 13:42:25;;;;;;;28.33;15.20;;;16.50;99.90;;;;;;5043650;28;20104;-80
2021/10/18 13:44:51;;;;;;;26.48;14.63;;;16.50;99.90;;;;;;5046812;28;20055;-81
2021/10/18 13:47:16;;;;;;;30.23;14.10;;;16.50;99.90;;;;;;5046696;28;20031;-84